Forside
METAR-TAF:

METAR-TAF

Lufthavne :

Rouen, Frankrig

Breddekreds: 49-23N, længdekreds: 001-11E, højde: 157 m

Aktuelle vejr

Denne rapport blev lavet for 37 minutter siden, kl. 01:00 UTC
Vind 3 kt fra nordnordvest
Temperatur 10°C
Fugtighed 87%
Tryk 1034 hPa
Sigt 10 km eller mere
ingen skyer under 1500m og ingen cumulonimbus

METAR: LFOP 250100Z AUTO 33003KT CAVOK 10/08 Q1034

Tid: 03:37 (01:37 UTC)

Vejrudsigter

Denne rapport blev lavet for 8 timer og 37 minutter siden, kl. 17:00 UTC
Foreløbig gælder fra 24 på 18 UTC til 25 på 18 UTC
Vind 10 kt fra vestnordvest
Sigt 10 km eller mere
ingen skyer under 1500m og ingen cumulonimbus
Sandsynlighed 30%
fra 25 på 03 UTC til 25 på 06 UTC
Sigt: 4500 m
dis
ændring
fra 25 på 06 UTC til 25 på 08 UTC
Vind 5 kt fra øst
ændring
fra 25 på 16 UTC til 25 på 18 UTC
Vind 10 kt fra nord

TAF: LFOP 241700Z 2418/2518 30010KT CAVOK PROB30 2503/2506 4500 BR BECMG 2506/2508 08005KT BECMG 2516/2518 01010KT

Vejrobservationer og prognoser fra mere end 4000 lufthavne (METAR og TAF).

De gule og røde prikker repræsenterer de meteorologiske stationer.

Flyt musen over at se navnet på stationen.

Så klik over at se vejr observationer og prognoser.

At skifte det kort: Klik på de grønne knapper med et sort kors for at zoome ind; på den grønne knap med en bindestreg for at zoome ud; eller på de grønne pile for tilstødende kort.


METAR-TAF: